createdAt,value
2019-01-25T00:00:32.948Z,71.10
2019-01-25T00:01:37.019Z,68.00
2019-01-25T00:02:41.142Z,66.20
2019-01-25T00:03:45.698Z,74.70
2019-01-25T00:04:49.760Z,70.65
2019-01-25T00:05:53.818Z,69.97
2019-01-25T00:06:57.946Z,77.03
2019-01-25T00:08:02.007Z,69.67
2019-01-25T00:09:08.450Z,66.65
2019-01-25T00:10:12.694Z,73.05
2019-01-25T00:11:16.819Z,66.28
2019-01-25T00:12:20.891Z,64.58
2019-01-25T00:13:24.996Z,74.25
2019-01-25T00:14:29.096Z,72.82
2019-01-25T00:15:33.155Z,72.27
2019-01-25T00:16:37.210Z,71.22
2019-01-25T00:17:41.299Z,61.58
2019-01-25T00:18:45.367Z,66.15
2019-01-25T00:19:49.446Z,66.87
2019-01-25T00:20:53.511Z,70.00
2019-01-25T00:21:57.596Z,67.03
2019-01-25T00:23:01.655Z,69.77
2019-01-25T00:24:06.115Z,68.22
2019-01-25T00:25:10.459Z,70.40
2019-01-25T00:26:14.517Z,65.78
2019-01-25T00:27:18.611Z,61.18
2019-01-25T00:28:22.671Z,64.58
2019-01-25T00:29:26.756Z,68.33
2019-01-25T00:30:30.806Z,66.77
2019-01-25T00:31:34.876Z,65.57
2019-01-25T00:32:38.959Z,66.72
2019-01-25T00:33:43.018Z,66.60
2019-01-25T00:34:47.125Z,66.80
2019-01-25T00:35:51.194Z,68.10
2019-01-25T00:36:55.311Z,66.35
2019-01-25T00:37:59.398Z,64.65
2019-01-25T00:39:05.117Z,65.20
2019-01-25T00:40:11.272Z,65.87
2019-01-25T00:41:15.326Z,69.20
2019-01-25T00:42:19.383Z,63.60
2019-01-25T00:43:23.468Z,69.72
2019-01-25T00:44:27.526Z,68.05
2019-01-25T00:45:31.583Z,73.17
2019-01-25T00:46:35.654Z,66.50
2019-01-25T00:47:39.710Z,74.92
2019-01-25T00:48:43.803Z,69.37
2019-01-25T00:49:47.962Z,69.87
2019-01-25T00:50:52.031Z,77.32
2019-01-25T00:51:56.087Z,72.80
2019-01-25T00:53:00.230Z,60.63
2019-01-25T00:54:04.363Z,72.12
2019-01-25T00:55:08.666Z,76.22
2019-01-25T00:56:12.947Z,77.15
2019-01-25T00:57:17.016Z,69.03
2019-01-25T00:58:21.134Z,76.07
2019-01-25T00:59:25.207Z,69.15
2019-01-25T01:00:29.335Z,77.90
2019-01-25T01:01:33.388Z,78.22
2019-01-25T01:02:37.464Z,74.47
2019-01-25T01:03:44.311Z,71.20
2019-01-25T01:04:48.399Z,72.30
2019-01-25T01:05:52.467Z,79.90
2019-01-25T01:06:56.534Z,69.30
2019-01-25T01:08:00.602Z,73.37
2019-01-25T01:09:06.950Z,72.62
2019-01-25T01:10:14.268Z,84.67
2019-01-25T01:11:17.464Z,73.97
2019-01-25T01:12:21.536Z,69.47
2019-01-25T01:13:25.611Z,73.05
2019-01-25T01:14:29.675Z,73.25
2019-01-25T01:15:33.811Z,77.08
2019-01-25T01:16:37.871Z,72.95
2019-01-25T01:17:41.942Z,79.85
2019-01-25T01:18:46.005Z,72.42
2019-01-25T01:19:50.078Z,71.07
2019-01-25T01:20:54.166Z,67.03
2019-01-25T01:21:58.237Z,69.30
2019-01-25T01:23:02.291Z,72.30
2019-01-25T01:24:06.380Z,62.90
2019-01-25T01:25:11.230Z,69.42
2019-01-25T01:26:15.317Z,65.22
2019-01-25T01:27:19.379Z,72.22
2019-01-25T01:28:23.448Z,67.82
2019-01-25T01:29:27.515Z,70.30
2019-01-25T01:30:31.595Z,76.12
2019-01-25T01:31:35.675Z,68.12
2019-01-25T01:32:39.755Z,76.00
2019-01-25T01:33:43.823Z,68.30
2019-01-25T01:34:47.891Z,67.00
2019-01-25T01:35:51.950Z,71.10
2019-01-25T01:36:56.035Z,76.65
2019-01-25T01:38:00.101Z,68.42
2019-01-25T01:39:05.899Z,79.65
2019-01-25T01:40:21.739Z,70.67
2019-01-25T01:41:22.095Z,67.47
2019-01-25T01:42:26.195Z,74.07
2019-01-25T01:43:30.270Z,73.12
2019-01-25T01:44:34.343Z,69.75
2019-01-25T01:45:38.394Z,73.12
2019-01-25T01:46:42.486Z,77.53
2019-01-25T01:47:46.647Z,72.82
2019-01-25T01:48:50.724Z,68.85
2019-01-25T01:49:54.806Z,69.05
2019-01-25T01:50:58.943Z,73.40
2019-01-25T01:52:03.116Z,68.45
2019-01-25T01:53:07.357Z,68.95
2019-01-25T01:54:11.615Z,76.57
2019-01-25T01:55:15.736Z,67.30
2019-01-25T01:56:19.814Z,72.32
2019-01-25T01:57:23.881Z,71.30
2019-01-25T01:58:27.965Z,75.37
2019-01-25T01:59:32.037Z,72.42
2019-01-25T02:00:37.008Z,70.95
2019-01-25T02:01:41.063Z,72.17
2019-01-25T02:02:45.143Z,68.52
2019-01-25T02:03:49.239Z,68.40
2019-01-25T02:04:53.299Z,68.35
2019-01-25T02:05:57.371Z,81.12
2019-01-25T02:07:01.448Z,72.20
2019-01-25T02:08:05.583Z,68.37
2019-01-25T02:09:09.861Z,68.78
2019-01-25T02:10:16.082Z,73.72
2019-01-25T02:11:20.155Z,66.95
2019-01-25T02:12:24.220Z,67.65
2019-01-25T02:13:28.275Z,71.82
2019-01-25T02:14:32.372Z,76.60
2019-01-25T02:15:36.431Z,73.50
2019-01-25T02:16:40.499Z,71.70
2019-01-25T02:17:44.594Z,73.52
2019-01-25T02:18:48.653Z,64.53
2019-01-25T02:19:52.739Z,70.22
2019-01-25T02:20:56.831Z,72.53
2019-01-25T02:22:00.903Z,71.25
2019-01-25T02:23:05.005Z,70.10
2019-01-25T02:24:09.100Z,70.95
2019-01-25T02:25:13.238Z,74.05
2019-01-25T02:26:17.302Z,72.62
2019-01-25T02:27:21.356Z,72.53
2019-01-25T02:28:25.432Z,73.35
2019-01-25T02:29:29.495Z,68.02
2019-01-25T02:30:33.602Z,72.08
2019-01-25T02:31:37.698Z,69.05
2019-01-25T02:32:41.768Z,65.72
2019-01-25T02:33:45.840Z,69.65
2019-01-25T02:34:49.906Z,67.58
2019-01-25T02:35:54.067Z,71.33
2019-01-25T02:36:58.356Z,63.87
2019-01-25T02:38:02.632Z,74.37
2019-01-25T02:39:08.851Z,71.80
2019-01-25T02:40:14.612Z,72.90
2019-01-25T02:41:18.873Z,72.60
2019-01-25T02:42:23.177Z,71.50
2019-01-25T02:43:27.451Z,70.40
2019-01-25T02:44:31.566Z,75.55
2019-01-25T02:45:35.631Z,72.35
2019-01-25T02:46:39.718Z,73.28
2019-01-25T02:47:43.783Z,73.92
2019-01-25T02:48:47.860Z,75.90
2019-01-25T02:49:51.915Z,70.30
2019-01-25T02:50:55.978Z,69.58
2019-01-25T02:52:00.147Z,78.65
2019-01-25T02:53:04.301Z,77.67
2019-01-25T02:54:08.518Z,70.28
2019-01-25T02:55:13.407Z,67.58
2019-01-25T02:56:17.508Z,67.75
2019-01-25T02:57:21.598Z,67.42
2019-01-25T02:58:25.652Z,69.72
2019-01-25T02:59:29.715Z,73.80
2019-01-25T03:00:33.771Z,63.98
2019-01-25T03:01:37.846Z,76.85
2019-01-25T03:02:41.926Z,69.00
2019-01-25T03:03:45.987Z,72.03
2019-01-25T03:04:50.050Z,72.87
2019-01-25T03:05:54.106Z,77.62
2019-01-25T03:06:58.163Z,73.02
2019-01-25T03:08:02.254Z,70.50
2019-01-25T03:09:08.443Z,72.35
2019-01-25T03:10:12.779Z,68.47
2019-01-25T03:11:16.851Z,72.42
2019-01-25T03:12:20.926Z,72.35
2019-01-25T03:13:25.019Z,72.20
2019-01-25T03:14:29.135Z,67.30
2019-01-25T03:15:33.232Z,82.37
2019-01-25T03:16:37.284Z,73.17
2019-01-25T03:17:41.338Z,72.55
2019-01-25T03:18:45.439Z,72.58
2019-01-25T03:19:49.558Z,71.97
2019-01-25T03:20:53.619Z,73.35
2019-01-25T03:21:57.686Z,75.92
2019-01-25T03:23:01.739Z,72.50
2019-01-25T03:24:05.921Z,76.65
2019-01-25T03:25:11.920Z,68.28
2019-01-25T03:26:15.982Z,79.10
2019-01-25T03:27:20.119Z,75.75
2019-01-25T03:28:24.223Z,75.83
2019-01-25T03:29:28.334Z,76.15
2019-01-25T03:30:32.419Z,75.78
2019-01-25T03:31:37.951Z,70.67
2019-01-25T03:32:42.244Z,73.45
2019-01-25T03:33:46.301Z,71.55
2019-01-25T03:34:50.411Z,71.40
2019-01-25T03:35:54.467Z,77.92
2019-01-25T03:36:58.599Z,77.45
2019-01-25T03:38:02.723Z,74.27
2019-01-25T03:39:09.315Z,74.70
2019-01-25T03:40:16.294Z,79.60
2019-01-25T03:41:20.343Z,80.67
2019-01-25T03:42:24.510Z,76.87
2019-01-25T03:43:28.585Z,76.10
2019-01-25T03:44:32.639Z,90.00
2019-01-25T03:45:36.788Z,74.30
2019-01-25T03:46:40.850Z,82.57
2019-01-25T03:47:44.915Z,75.85
2019-01-25T03:48:49.060Z,83.97
2019-01-25T03:49:53.116Z,82.12
2019-01-25T03:50:57.208Z,78.47
2019-01-25T03:52:01.280Z,77.92
2019-01-25T03:53:05.341Z,74.87
2019-01-25T03:54:09.549Z,80.38
2019-01-25T03:55:13.946Z,80.15
2019-01-25T03:56:18.048Z,79.10
2019-01-25T03:57:22.112Z,78.67
2019-01-25T03:58:26.176Z,81.90
2019-01-25T03:59:30.246Z,77.65
2019-01-25T04:00:34.362Z,75.28
2019-01-25T04:01:38.443Z,74.55
2019-01-25T04:02:42.543Z,72.95
2019-01-25T04:03:46.613Z,79.60
2019-01-25T04:04:50.679Z,79.67
2019-01-25T04:05:54.745Z,78.00
2019-01-25T04:06:58.821Z,76.87
2019-01-25T04:08:02.874Z,77.62
2019-01-25T04:09:09.417Z,77.50
2019-01-25T04:10:15.505Z,81.47
2019-01-25T04:11:19.556Z,77.20
2019-01-25T04:12:23.627Z,79.95
2019-01-25T04:13:27.691Z,87.67
2019-01-25T04:14:31.755Z,85.83
2019-01-25T04:15:35.867Z,86.72
2019-01-25T04:16:39.952Z,85.20
2019-01-25T04:17:44.073Z,80.30
2019-01-25T04:18:48.139Z,81.12
2019-01-25T04:19:52.201Z,81.80
2019-01-25T04:20:56.267Z,79.35
2019-01-25T04:22:00.355Z,86.42
2019-01-25T04:23:04.452Z,79.72
2019-01-25T04:24:08.722Z,77.75
2019-01-25T04:25:15.111Z,75.15
2019-01-25T04:26:19.175Z,85.40
2019-01-25T04:27:23.271Z,81.37
2019-01-25T04:28:27.356Z,87.40
2019-01-25T04:29:31.431Z,85.40
2019-01-25T04:30:35.499Z,76.90
2019-01-25T04:31:39.567Z,79.97
2019-01-25T04:32:43.666Z,83.07
2019-01-25T04:33:47.727Z,84.30
2019-01-25T04:34:51.812Z,80.80
2019-01-25T04:35:55.933Z,69.67
2019-01-25T04:37:00.074Z,74.90
2019-01-25T04:38:04.173Z,90.28
2019-01-25T04:39:09.673Z,91.35
2019-01-25T04:40:14.783Z,78.80
2019-01-25T04:41:18.858Z,80.77
2019-01-25T04:42:22.936Z,81.80
2019-01-25T04:43:27.010Z,74.03
2019-01-25T04:44:31.066Z,78.17
2019-01-25T04:45:35.135Z,89.92
2019-01-25T04:46:39.190Z,87.02
2019-01-25T04:47:43.244Z,84.90
2019-01-25T04:48:47.347Z,86.63
2019-01-25T04:49:51.411Z,78.30
2019-01-25T04:50:55.478Z,85.95
2019-01-25T04:51:59.539Z,88.85
2019-01-25T04:53:03.604Z,87.75
2019-01-25T04:54:07.747Z,85.38
2019-01-25T04:55:15.681Z,91.20
2019-01-25T04:56:19.814Z,79.65
2019-01-25T04:57:23.886Z,86.25
2019-01-25T04:58:27.975Z,84.52
2019-01-25T04:59:32.059Z,84.92
2019-01-25T05:00:36.119Z,89.85
2019-01-25T05:01:40.223Z,92.53
2019-01-25T05:02:52.791Z,85.30
2019-01-25T05:03:56.867Z,79.97
2019-01-25T05:05:00.969Z,88.47
2019-01-25T05:06:05.406Z,89.25
2019-01-25T05:07:09.800Z,80.12
2019-01-25T05:08:20.713Z,83.00
2019-01-25T05:09:24.770Z,94.22
2019-01-25T05:10:28.854Z,90.22
2019-01-25T05:11:32.913Z,87.30
2019-01-25T05:12:36.975Z,80.87
2019-01-25T05:13:41.053Z,90.42
2019-01-25T05:14:45.125Z,90.97
2019-01-25T05:15:49.215Z,91.10
2019-01-25T05:16:53.271Z,79.07
2019-01-25T05:17:57.331Z,79.72
2019-01-25T05:19:01.401Z,90.38
2019-01-25T05:20:06.183Z,87.40
2019-01-25T05:21:10.460Z,84.17
2019-01-25T05:22:14.591Z,94.20
2019-01-25T05:23:18.679Z,87.05
2019-01-25T05:24:22.752Z,87.60
2019-01-25T05:25:27.456Z,90.92
2019-01-25T05:26:31.603Z,81.67
2019-01-25T05:27:35.667Z,75.67
2019-01-25T05:28:39.753Z,86.00
2019-01-25T05:29:52.425Z,86.12
2019-01-25T05:31:07.099Z,81.25
2019-01-25T05:32:11.419Z,77.85
2019-01-25T05:33:15.565Z,89.05
2019-01-25T05:34:19.732Z,95.70
2019-01-25T05:35:23.844Z,96.25
2019-01-25T05:36:27.979Z,81.80
2019-01-25T05:37:32.043Z,85.03
2019-01-25T05:38:36.111Z,86.82
2019-01-25T05:39:40.212Z,83.17
2019-01-25T05:40:44.263Z,80.62
2019-01-25T05:41:50.148Z,84.05
2019-01-25T05:42:54.211Z,85.65
2019-01-25T05:43:58.265Z,81.00
2019-01-25T05:45:08.092Z,96.78
2019-01-25T05:46:12.395Z,80.85
2019-01-25T05:47:16.471Z,90.75
2019-01-25T05:48:20.532Z,83.47
2019-01-25T05:49:25.242Z,89.72
2019-01-25T05:50:29.311Z,79.17
2019-01-25T05:51:33.874Z,83.12
2019-01-25T05:52:38.046Z,88.97
2019-01-25T05:53:49.697Z,85.90
2019-01-25T05:54:53.755Z,78.97
2019-01-25T05:55:57.826Z,80.07
2019-01-25T05:57:01.891Z,83.07
2019-01-25T05:58:06.391Z,80.53
2019-01-25T05:59:10.566Z,78.02
2019-01-25T06:00:16.682Z,81.97
2019-01-25T06:01:20.738Z,79.77
2019-01-25T06:02:24.798Z,89.25
2019-01-25T06:03:28.906Z,86.95
2019-01-25T06:04:36.788Z,82.25
2019-01-25T06:05:40.845Z,83.97
2019-01-25T06:06:44.911Z,82.27
2019-01-25T06:07:48.971Z,77.95
2019-01-25T06:08:53.064Z,80.53
2019-01-25T06:09:57.128Z,79.60
2019-01-25T06:11:11.352Z,87.90
2019-01-25T06:12:15.480Z,91.53
2019-01-25T06:13:19.803Z,83.60
2019-01-25T06:14:23.966Z,96.35
2019-01-25T06:15:29.923Z,84.00
2019-01-25T06:16:33.990Z,78.75
2019-01-25T06:17:38.050Z,84.05
2019-01-25T06:18:42.149Z,78.92
2019-01-25T06:19:46.278Z,91.78
2019-01-25T06:20:52.673Z,83.85
2019-01-25T06:21:57.504Z,82.70
2019-01-25T06:23:01.567Z,83.58
2019-01-25T06:24:05.660Z,86.25
2019-01-25T06:25:09.823Z,90.87
2019-01-25T06:26:14.124Z,83.22
2019-01-25T06:27:18.182Z,86.78
2019-01-25T06:28:22.252Z,89.25
2019-01-25T06:29:27.219Z,84.55
2019-01-25T06:30:31.389Z,84.85
2019-01-25T06:31:35.455Z,93.05
2019-01-25T06:32:39.538Z,88.17
2019-01-25T06:33:43.616Z,93.03
2019-01-25T06:34:47.697Z,88.80
2019-01-25T06:35:51.851Z,89.35
2019-01-25T06:36:55.927Z,95.28
2019-01-25T06:38:00.038Z,88.07
2019-01-25T06:39:05.363Z,90.65
2019-01-25T06:40:09.811Z,95.17
2019-01-25T06:41:13.940Z,89.85
2019-01-25T06:42:17.998Z,82.45
2019-01-25T06:43:22.059Z,90.57
2019-01-25T06:44:26.136Z,93.55
2019-01-25T06:45:30.221Z,81.25
2019-01-25T06:46:34.399Z,87.22
2019-01-25T06:47:38.475Z,85.83
2019-01-25T06:48:42.531Z,88.42
2019-01-25T06:49:46.593Z,98.20
2019-01-25T06:50:50.659Z,98.17
2019-01-25T06:51:54.738Z,91.70
2019-01-25T06:52:58.806Z,90.67
2019-01-25T06:54:02.873Z,88.70
2019-01-25T06:55:07.029Z,92.72
2019-01-25T06:56:11.502Z,86.30
2019-01-25T06:57:25.023Z,90.62
2019-01-25T06:58:46.713Z,92.45
2019-01-25T06:59:50.775Z,86.63
2019-01-25T07:01:16.930Z,91.53
2019-01-25T07:02:26.074Z,78.87
2019-01-25T07:03:30.181Z,89.20
2019-01-25T07:04:34.283Z,81.60
2019-01-25T07:05:38.422Z,89.95
2019-01-25T07:06:42.528Z,108.37
2019-01-25T07:07:46.727Z,93.25
2019-01-25T07:08:50.872Z,88.90
2019-01-25T07:09:54.956Z,92.88
2019-01-25T07:10:59.019Z,93.03
2019-01-25T07:12:03.104Z,97.53
2019-01-25T07:13:07.308Z,94.75
2019-01-25T07:14:11.752Z,99.22
2019-01-25T07:15:18.492Z,104.58
2019-01-25T07:16:22.594Z,95.57
2019-01-25T07:17:26.675Z,96.90
2019-01-25T07:18:30.751Z,88.80
2019-01-25T07:19:39.667Z,100.05
2019-01-25T07:20:43.822Z,91.63
2019-01-25T07:21:47.904Z,90.55
2019-01-25T07:22:51.990Z,104.75
2019-01-25T07:23:56.075Z,97.92
2019-01-25T07:25:00.191Z,93.45
2019-01-25T07:26:04.343Z,100.55
2019-01-25T07:27:08.513Z,97.78
2019-01-25T07:28:12.818Z,88.65
2019-01-25T07:29:16.887Z,98.97
2019-01-25T07:30:21.015Z,89.25
2019-01-25T07:31:25.097Z,83.85
2019-01-25T07:32:29.635Z,88.15
2019-01-25T07:33:33.736Z,84.32
2019-01-25T07:34:37.820Z,85.80
2019-01-25T07:35:41.989Z,88.20
2019-01-25T07:36:46.190Z,87.30
2019-01-25T07:37:50.363Z,90.42
2019-01-25T07:38:54.466Z,82.15
2019-01-25T07:39:58.597Z,87.80
2019-01-25T07:41:02.756Z,84.77
2019-01-25T07:42:06.819Z,87.08
2019-01-25T07:43:11.167Z,85.77
2019-01-25T07:44:15.265Z,88.12
2019-01-25T07:45:19.415Z,86.20
2019-01-25T07:46:23.601Z,87.78
2019-01-25T07:47:27.712Z,93.33
2019-01-25T07:48:31.818Z,79.47
2019-01-25T07:49:35.896Z,90.57
2019-01-25T07:50:39.983Z,90.85
2019-01-25T07:51:44.145Z,87.10
2019-01-25T07:52:48.241Z,90.03
2019-01-25T07:53:52.367Z,88.87
2019-01-25T07:54:56.488Z,82.15
2019-01-25T07:56:00.644Z,88.75
2019-01-25T07:57:04.833Z,87.80
2019-01-25T07:58:09.239Z,85.10
2019-01-25T07:59:13.555Z,85.20
2019-01-25T08:00:17.707Z,83.85
2019-01-25T08:01:21.768Z,93.15
2019-01-25T08:02:25.908Z,87.53
2019-01-25T08:03:30.012Z,84.85
2019-01-25T08:04:34.161Z,88.52
2019-01-25T08:05:38.332Z,83.17
2019-01-25T08:06:42.478Z,85.22
2019-01-25T08:07:46.655Z,82.05
2019-01-25T08:08:50.963Z,89.52
2019-01-25T08:09:55.192Z,81.25
2019-01-25T08:10:59.468Z,78.75
2019-01-25T08:12:07.537Z,88.85
2019-01-25T08:13:09.793Z,85.87
2019-01-25T08:14:13.952Z,88.45
2019-01-25T08:15:19.121Z,86.87
2019-01-25T08:16:23.216Z,76.72
2019-01-25T08:17:27.287Z,84.25
2019-01-25T08:18:31.384Z,83.45
2019-01-25T08:19:35.526Z,91.82
2019-01-25T08:20:39.643Z,87.27
2019-01-25T08:21:43.752Z,81.17
2019-01-25T08:22:47.873Z,92.17
2019-01-25T08:23:51.977Z,81.53
2019-01-25T08:24:56.060Z,80.45
2019-01-25T08:26:00.127Z,94.77
2019-01-25T08:27:04.275Z,85.70
2019-01-25T08:28:08.441Z,86.30
2019-01-25T08:29:12.605Z,82.70
2019-01-25T08:30:16.820Z,87.97
2019-01-25T08:31:20.966Z,83.90
2019-01-25T08:32:25.076Z,88.33
2019-01-25T08:33:29.261Z,80.92
2019-01-25T08:34:33.442Z,80.85
2019-01-25T08:35:37.597Z,83.80
2019-01-25T08:36:41.746Z,85.72
2019-01-25T08:37:45.885Z,98.10
2019-01-25T08:38:50.004Z,83.87
2019-01-25T08:39:54.088Z,91.28
2019-01-25T08:40:58.555Z,95.50
2019-01-25T08:42:02.629Z,91.92
2019-01-25T08:43:08.877Z,90.03
2019-01-25T08:44:12.886Z,88.33
2019-01-25T08:45:17.073Z,94.00
2019-01-25T08:46:21.345Z,89.42
2019-01-25T08:47:25.467Z,86.17
2019-01-25T08:48:29.568Z,81.12
2019-01-25T08:49:33.661Z,91.55
2019-01-25T08:50:37.927Z,87.27
2019-01-25T08:51:42.109Z,85.03
2019-01-25T08:52:46.271Z,85.25
2019-01-25T08:53:50.492Z,86.08
2019-01-25T08:54:54.693Z,92.55
2019-01-25T08:55:58.796Z,95.40
2019-01-25T08:57:02.876Z,86.85
2019-01-25T08:58:07.038Z,93.58
2019-01-25T08:59:11.549Z,89.03
2019-01-25T09:00:18.042Z,99.05
2019-01-25T09:01:22.167Z,93.90
2019-01-25T09:02:26.284Z,96.85
2019-01-25T09:03:30.375Z,89.17
2019-01-25T09:04:34.439Z,86.90
2019-01-25T09:05:38.544Z,84.60
2019-01-25T09:06:42.679Z,93.58
2019-01-25T09:07:46.738Z,94.47
2019-01-25T09:08:50.839Z,91.47
2019-01-25T09:09:54.901Z,80.45
2019-01-25T09:10:58.966Z,90.85
2019-01-25T09:12:03.098Z,99.17
2019-01-25T09:13:07.205Z,268.75
2019-01-25T09:14:11.410Z,108.83
2019-01-25T09:15:22.497Z,88.87
2019-01-25T09:16:26.884Z,88.97
2019-01-25T09:17:30.979Z,93.45
2019-01-25T09:18:35.071Z,88.15
2019-01-25T09:19:39.126Z,86.42
2019-01-25T09:20:43.194Z,91.15
2019-01-25T09:21:47.249Z,97.25
2019-01-25T09:22:51.369Z,95.42
2019-01-25T09:23:55.455Z,83.85
2019-01-25T09:24:59.540Z,87.70
2019-01-25T09:26:03.623Z,87.90
2019-01-25T09:27:07.799Z,91.82
2019-01-25T09:28:12.323Z,94.72
2019-01-25T09:29:16.459Z,90.47
2019-01-25T09:30:21.598Z,91.20
2019-01-25T09:31:25.684Z,94.17
2019-01-25T09:32:29.798Z,95.28
2019-01-25T09:33:33.892Z,89.35
2019-01-25T09:34:37.979Z,103.30
2019-01-25T09:35:42.073Z,91.35
2019-01-25T09:36:46.147Z,92.82
2019-01-25T09:37:50.310Z,91.22
2019-01-25T09:38:54.394Z,87.25
2019-01-25T09:39:58.513Z,86.85
2019-01-25T09:41:02.573Z,93.03
2019-01-25T09:42:06.665Z,95.12
2019-01-25T09:43:11.115Z,89.00
2019-01-25T09:44:15.275Z,89.30
2019-01-25T09:45:19.327Z,86.25
2019-01-25T09:46:23.396Z,96.97
2019-01-25T09:47:27.491Z,90.72
2019-01-25T09:48:31.556Z,93.58
2019-01-25T09:49:35.656Z,100.87
2019-01-25T09:50:39.719Z,97.53
2019-01-25T09:51:43.787Z,85.50
2019-01-25T09:52:47.859Z,87.67
2019-01-25T09:53:52.445Z,93.62
2019-01-25T09:54:56.644Z,101.82
2019-01-25T09:56:00.715Z,85.35
2019-01-25T09:57:05.004Z,94.90
2019-01-25T09:58:11.782Z,99.75
2019-01-25T09:59:15.834Z,89.22
2019-01-25T10:00:34.899Z,88.35
2019-01-25T10:01:38.996Z,83.15
2019-01-25T10:02:43.059Z,82.27
2019-01-25T10:03:47.119Z,89.92
2019-01-25T10:04:51.187Z,86.22
2019-01-25T10:05:55.283Z,87.40
2019-01-25T10:06:59.351Z,95.53
2019-01-25T10:08:03.411Z,90.10
2019-01-25T10:09:09.400Z,85.32
2019-01-25T10:10:13.550Z,81.32
2019-01-25T10:11:17.752Z,79.40
2019-01-25T10:12:21.811Z,72.85
2019-01-25T10:13:25.895Z,83.78
2019-01-25T10:14:29.956Z,77.12
2019-01-25T10:15:34.031Z,85.03
2019-01-25T10:16:38.147Z,90.95
2019-01-25T10:17:42.220Z,83.07
2019-01-25T10:18:46.284Z,70.78
2019-01-25T10:19:50.354Z,81.42
2019-01-25T10:20:54.880Z,79.40
2019-01-25T10:21:59.063Z,75.08
2019-01-25T10:23:03.131Z,73.90
2019-01-25T10:24:07.315Z,72.95
2019-01-25T10:25:11.543Z,72.87
2019-01-25T10:26:15.693Z,67.20
2019-01-25T10:27:19.780Z,73.75
2019-01-25T10:28:23.851Z,75.10
2019-01-25T10:29:27.914Z,75.97
2019-01-25T10:30:31.980Z,77.40
2019-01-25T10:31:36.082Z,67.97
2019-01-25T10:32:40.219Z,72.22
2019-01-25T10:33:44.346Z,71.67
2019-01-25T10:34:48.530Z,69.87
2019-01-25T10:35:52.604Z,70.20
2019-01-25T10:36:56.668Z,68.07
2019-01-25T10:38:01.919Z,73.05
2019-01-25T10:39:08.344Z,75.72
2019-01-25T10:40:14.856Z,74.65
2019-01-25T10:41:18.910Z,73.95
2019-01-25T10:42:22.971Z,82.45
2019-01-25T10:43:27.059Z,67.37
2019-01-25T10:44:31.119Z,68.47
2019-01-25T10:45:36.918Z,73.17
2019-01-25T10:46:40.996Z,66.40
2019-01-25T10:47:45.092Z,69.55
2019-01-25T10:48:49.190Z,72.05
2019-01-25T10:49:53.256Z,64.67
2019-01-25T10:50:57.336Z,67.58
2019-01-25T10:52:01.408Z,63.68
2019-01-25T10:53:06.071Z,71.72
2019-01-25T10:54:10.267Z,66.15
2019-01-25T10:55:14.679Z,64.70
2019-01-25T10:56:18.740Z,65.90
2019-01-25T10:57:22.807Z,62.20
2019-01-25T10:58:26.879Z,62.00
2019-01-25T10:59:30.959Z,64.32
2019-01-25T11:00:35.040Z,64.80
2019-01-25T11:01:39.143Z,61.77
2019-01-25T11:02:43.246Z,56.33
2019-01-25T11:03:47.352Z,63.65
2019-01-25T11:04:51.447Z,59.75
2019-01-25T11:05:55.536Z,57.40
2019-01-25T11:06:59.622Z,54.13
2019-01-25T11:08:03.767Z,54.65
2019-01-25T11:09:09.563Z,52.00
2019-01-25T11:10:13.854Z,47.93
2019-01-25T11:11:17.914Z,42.53
2019-01-25T11:12:21.985Z,45.03
2019-01-25T11:13:26.111Z,33.40
2019-01-25T11:14:30.175Z,40.92
2019-01-25T11:15:34.259Z,42.00
2019-01-25T11:16:38.355Z,36.13
2019-01-25T11:17:42.478Z,34.50
2019-01-25T11:18:46.545Z,35.33
2019-01-25T11:19:50.598Z,33.55
2019-01-25T11:20:54.684Z,32.98
2019-01-25T11:21:58.742Z,30.68
2019-01-25T11:23:02.859Z,38.02
2019-01-25T11:24:07.943Z,32.75
2019-01-25T11:25:15.535Z,30.43
2019-01-25T11:26:19.610Z,29.85
2019-01-25T11:27:23.679Z,28.77
2019-01-25T11:28:27.735Z,33.55
2019-01-25T11:29:31.808Z,30.02
2019-01-25T11:30:35.880Z,25.60
2019-01-25T11:31:39.967Z,27.80
2019-01-25T11:32:44.027Z,23.30
2019-01-25T11:33:48.087Z,22.87
2019-01-25T11:34:52.171Z,25.32
2019-01-25T11:35:56.268Z,30.72
2019-01-25T11:37:00.373Z,27.55
2019-01-25T11:38:04.443Z,26.40
2019-01-25T11:39:10.287Z,28.47
2019-01-25T11:40:20.005Z,25.62
2019-01-25T11:41:24.067Z,24.00
2019-01-25T11:42:28.175Z,26.75
2019-01-25T11:43:32.290Z,26.55
2019-01-25T11:44:36.364Z,27.13
2019-01-25T11:45:40.456Z,21.70
2019-01-25T11:46:44.543Z,22.67
2019-01-25T11:47:48.631Z,20.45
2019-01-25T11:48:52.735Z,19.00
2019-01-25T11:49:56.786Z,18.87
2019-01-25T11:51:00.840Z,18.40
2019-01-25T11:52:04.964Z,21.45
2019-01-25T11:53:09.365Z,18.95
2019-01-25T11:54:13.544Z,17.80
2019-01-25T11:55:17.627Z,20.95
2019-01-25T11:56:21.712Z,18.92
2019-01-25T11:57:25.835Z,20.88
2019-01-25T11:58:29.914Z,17.98
2019-01-25T11:59:33.971Z,17.27
2019-01-25T12:00:40.139Z,18.30
2019-01-25T12:01:44.191Z,14.50
2019-01-25T12:02:48.286Z,19.10
2019-01-25T12:03:52.468Z,19.05
2019-01-25T12:04:56.527Z,19.05
2019-01-25T12:06:00.588Z,18.25
2019-01-25T12:07:04.682Z,15.05
2019-01-25T12:08:08.925Z,18.67
2019-01-25T12:09:13.006Z,16.35
2019-01-25T12:10:18.304Z,20.52
2019-01-25T12:11:22.368Z,22.50
2019-01-25T12:12:26.416Z,17.12
2019-01-25T12:13:30.483Z,16.25
2019-01-25T12:14:34.566Z,16.82
2019-01-25T12:15:38.629Z,17.85
2019-01-25T12:16:42.688Z,15.35
2019-01-25T12:17:46.741Z,15.30
2019-01-25T12:18:50.824Z,16.60
2019-01-25T12:19:54.920Z,15.40
2019-01-25T12:20:58.974Z,15.20
2019-01-25T12:22:03.038Z,14.15
2019-01-25T12:23:07.124Z,14.23
2019-01-25T12:24:11.358Z,12.73
2019-01-25T12:25:15.467Z,16.23
2019-01-25T12:26:19.571Z,14.38
2019-01-25T12:27:23.674Z,15.65
2019-01-25T12:28:27.743Z,14.05
2019-01-25T12:29:31.922Z,16.62
2019-01-25T12:30:39.644Z,13.85
2019-01-25T12:31:43.779Z,15.48
2019-01-25T12:32:47.834Z,15.93
2019-01-25T12:33:51.905Z,17.82
2019-01-25T12:34:55.966Z,15.70
2019-01-25T12:36:00.068Z,17.95
2019-01-25T12:37:04.849Z,17.77
2019-01-25T12:38:09.075Z,16.45
2019-01-25T12:39:13.148Z,19.50
2019-01-25T12:40:17.255Z,16.85
2019-01-25T12:41:21.350Z,14.78
2019-01-25T12:42:25.411Z,18.15
2019-01-25T12:43:29.487Z,13.80
2019-01-25T12:44:33.594Z,16.82
2019-01-25T12:45:37.666Z,16.77
2019-01-25T12:46:41.749Z,16.45
2019-01-25T12:47:45.803Z,18.07
2019-01-25T12:48:49.862Z,16.70
2019-01-25T12:49:53.927Z,16.12
2019-01-25T12:51:08.572Z,17.55
2019-01-25T12:52:13.007Z,15.90
2019-01-25T12:53:17.171Z,18.35
2019-01-25T12:54:21.303Z,18.35
2019-01-25T12:55:25.367Z,17.40
2019-01-25T12:56:29.426Z,16.85
2019-01-25T12:57:33.510Z,18.10
2019-01-25T12:58:37.647Z,19.02
2019-01-25T12:59:41.712Z,18.90
2019-01-25T13:00:45.776Z,19.62
2019-01-25T13:01:50.947Z,20.92
2019-01-25T13:02:55.107Z,18.40
2019-01-25T13:03:59.174Z,19.23
2019-01-25T13:05:03.250Z,19.50
2019-01-25T13:06:07.460Z,20.40
2019-01-25T13:07:11.742Z,17.32
2019-01-25T13:08:15.871Z,18.27
2019-01-25T13:09:19.930Z,18.42
2019-01-25T13:10:24.198Z,22.70
2019-01-25T13:11:28.255Z,16.02
2019-01-25T13:12:32.302Z,20.23
2019-01-25T13:13:36.382Z,16.02
2019-01-25T13:14:40.446Z,17.45
2019-01-25T13:15:44.571Z,16.25
2019-01-25T13:16:48.648Z,17.17
2019-01-25T13:17:52.695Z,15.58
2019-01-25T13:18:56.787Z,14.93
2019-01-25T13:20:00.849Z,15.75
2019-01-25T13:21:04.983Z,17.52
2019-01-25T13:22:09.123Z,14.80
2019-01-25T13:23:13.248Z,15.53
2019-01-25T13:24:17.354Z,17.15
2019-01-25T13:25:21.418Z,16.70
2019-01-25T13:26:25.564Z,15.20
2019-01-25T13:27:29.632Z,17.48
2019-01-25T13:28:33.707Z,18.30
2019-01-25T13:29:37.865Z,18.95
2019-01-25T13:30:42.018Z,15.98
2019-01-25T13:31:46.160Z,17.10
2019-01-25T13:32:50.300Z,17.80
2019-01-25T13:33:54.527Z,15.83
2019-01-25T13:34:58.682Z,18.73
2019-01-25T13:36:02.835Z,17.85
2019-01-25T13:37:06.940Z,19.40
2019-01-25T13:38:11.181Z,19.82
2019-01-25T13:39:15.314Z,15.53
2019-01-25T13:40:20.562Z,17.42
2019-01-25T13:41:27.391Z,18.07
2019-01-25T13:42:30.407Z,14.95
2019-01-25T13:43:38.960Z,15.53
2019-01-25T13:44:40.233Z,15.83
2019-01-25T13:45:44.344Z,12.75
2019-01-25T13:46:48.400Z,17.30
2019-01-25T13:47:52.463Z,17.70
2019-01-25T13:48:56.536Z,16.23
2019-01-25T13:50:00.599Z,14.90